Date,TemperatureHighF,TemperatureAvgF,TemperatureLowF,DewpointHighF,DewpointAvgF,DewpointLowF,HumidityHigh,HumidityAvg,HumidityLow,PressureMaxIn,PressureMinIn,WindSpeedMaxMPH,WindSpeedAvgMPH,GustSpeedMaxMPH,PrecipitationSumIn
2013-2-1,49.8,37.5,28.5,35.5,30.0,26.0,94,76,41,30.45,30.33,14,2,14,0.00
2013-2-2,49.9,36.6,28.4,34.1,30.5,26.5,96,80,50,30.46,30.31,16,2,16,0.00
2013-2-3,56.6,43.0,32.3,31.2,27.2,24.0,82,56,32,30.33,30.16,15,4,15,0.00
2013-2-4,53.7,44.9,39.1,30.6,25.0,18.6,62,46,29,30.17,29.93,16,3,16,0.00
2013-2-5,47.4,41.2,34.2,32.0,25.0,18.4,78,54,37,30.05,29.88,25,6,25,0.00
2013-2-6,48.4,38.5,33.4,27.7,25.4,22.2,76,60,36,30.13,29.92,22,5,22,0.00
2013-2-7,40.2,33.8,28.0,28.9,24.9,20.6,88,70,49,30.11,29.89,26,2,26,0.00
2013-2-8,38.9,30.9,24.9,25.7,21.7,16.7,89,70,41,30.24,30.11,12,2,12,0.00
2013-2-9,43.7,31.6,22.7,29.2,23.2,14.4,87,71,55,30.30,30.20,10,2,10,0.00
2013-2-10,44.9,34.0,26.7,28.5,24.2,21.4,93,70,39,30.35,30.28,11,1,11,0.00
2013-2-11,49.8,37.3,28.6,31.8,26.0,21.2,82,65,41,30.37,30.25,16,3,16,0.00
2013-2-12,50.2,38.4,32.4,32.7,29.3,25.3,88,71,42,30.46,30.37,16,4,16,0.00
2013-2-13,47.0,39.3,34.7,34.7,31.4,29.3,87,74,55,30.47,30.39,15,3,15,0.00
2013-2-14,52.9,40.2,31.8,35.8,32.9,29.2,93,77,48,30.56,30.47,14,3,14,0.00
2013-2-15,58.0,42.8,32.9,38.3,34.2,30.1,93,74,43,30.52,30.27,13,2,13,0.00
2013-2-16,52.5,41.5,28.0,33.8,27.2,20.9,83,58,31,30.27,30.11,21,6,21,0.00
2013-2-17,45.8,32.9,25.4,24.8,21.2,11.4,84,65,25,30.23,30.10,11,2,11,0.00
2013-2-18,39.5,32.4,26.6,26.3,23.4,20.3,86,70,51,30.11,29.79,11,2,11,0.00
2013-2-19,40.5,31.6,26.2,24.8,22.5,20.0,84,70,47,30.00,29.71,13,2,13,0.00
2013-2-20,42.5,32.3,25.1,24.7,22.3,18.5,87,68,43,30.10,30.00,9,2,9,0.00
2013-2-21,40.7,32.6,25.5,26.5,24.3,21.4,88,73,49,30.21,30.08,13,4,13,0.00
2013-2-22,43.6,35.0,27.1,34.4,28.8,24.3,94,79,60,30.20,29.89,33,8,33,0.01
2013-2-23,37.4,29.7,23.7,27.4,22.2,18.6,91,74,48,30.43,30.04,15,3,15,0.03
2013-2-24,46.9,33.5,23.1,32.0,24.5,19.3,86,71,47,30.46,30.14,21,6,21,0.00
2013-2-25,41.9,34.6,25.8,32.6,24.4,14.3,92,68,36,30.35,30.07,24,4,24,0.02
2013-2-26,48.2,35.1,24.5,23.8,19.1,12.8,83,56,27,30.41,30.30,18,5,18,0.00
2013-2-27,47.1,39.4,32.1,33.8,24.9,16.5,72,56,44,30.34,30.28,17,7,17,0.00
2013-2-28,53.2,44.2,38.2,40.8,37.4,32.5,86,77,59,30.47,30.26,26,8,26,0.00